createdAt,value
2019-02-27T00:01:35.334Z,4.50
2019-02-27T00:04:04.166Z,2.57
2019-02-27T00:06:32.146Z,6.17
2019-02-27T00:09:00.513Z,4.57
2019-02-27T00:11:29.238Z,7.53
2019-02-27T00:13:57.994Z,5.17
2019-02-27T00:16:28.119Z,2.87
2019-02-27T00:18:58.581Z,3.70
2019-02-27T00:21:26.246Z,2.33
2019-02-27T00:23:56.886Z,6.07
2019-02-27T00:26:26.762Z,5.70
2019-02-27T00:28:56.139Z,2.93
2019-02-27T00:31:24.856Z,5.03
2019-02-27T00:33:53.031Z,5.57
2019-02-27T00:36:21.332Z,4.37
2019-02-27T00:38:49.414Z,3.63
2019-02-27T00:41:17.510Z,2.80
2019-02-27T00:43:45.603Z,4.53
2019-02-27T00:46:13.996Z,3.67
2019-02-27T00:48:42.602Z,3.43
2019-02-27T00:51:12.035Z,3.50
2019-02-27T00:53:40.908Z,2.90
2019-02-27T00:56:11.942Z,3.20
2019-02-27T00:58:38.856Z,3.63
2019-02-27T01:01:06.961Z,2.17
2019-02-27T01:03:35.142Z,3.30
2019-02-27T01:06:03.676Z,2.90
2019-02-27T01:08:31.786Z,2.17
2019-02-27T01:10:59.826Z,2.40
2019-02-27T01:13:28.881Z,3.37
2019-02-27T01:15:57.834Z,3.93
2019-02-27T01:18:30.526Z,4.03
2019-02-27T01:20:57.067Z,2.20
2019-02-27T01:23:25.070Z,2.40
2019-02-27T01:25:56.052Z,3.53
2019-02-27T01:28:23.105Z,4.33
2019-02-27T01:30:51.222Z,2.37
2019-02-27T01:33:20.618Z,2.33
2019-02-27T01:35:51.286Z,2.37
2019-02-27T01:38:18.714Z,4.50
2019-02-27T01:40:48.990Z,3.83
2019-02-27T01:43:18.045Z,3.60
2019-02-27T01:45:46.372Z,5.17
2019-02-27T01:48:15.470Z,3.03
2019-02-27T01:50:43.659Z,6.30
2019-02-27T01:53:11.735Z,4.07
2019-02-27T01:55:39.822Z,3.17
2019-02-27T01:58:09.500Z,3.50
2019-02-27T02:00:38.450Z,4.17
2019-02-27T02:03:06.639Z,4.13
2019-02-27T02:05:36.026Z,2.43
2019-02-27T02:08:13.505Z,3.23
2019-02-27T02:10:38.757Z,2.37
2019-02-27T02:13:33.054Z,3.37
2019-02-27T02:16:38.989Z,3.60
2019-02-27T02:19:39.512Z,2.60
2019-02-27T02:22:38.918Z,4.33
2019-02-27T02:26:05.045Z,3.90
2019-02-27T02:29:10.019Z,3.73
2019-02-27T02:32:16.811Z,2.27
2019-02-27T02:35:15.765Z,3.97
2019-02-27T02:38:27.043Z,4.47
2019-02-27T02:41:47.999Z,2.30
2019-02-27T02:44:29.435Z,4.17
2019-02-27T02:47:47.198Z,5.73
2019-02-27T02:51:09.443Z,4.33
2019-02-27T02:54:53.318Z,1.63
2019-02-27T02:58:03.341Z,2.43
2019-02-27T03:00:52.262Z,3.63
2019-02-27T03:03:46.350Z,2.30
2019-02-27T03:06:35.095Z,3.30
2019-02-27T03:09:16.650Z,3.33
2019-02-27T03:12:31.376Z,2.10
2019-02-27T03:15:32.747Z,5.23
2019-02-27T03:18:15.752Z,2.37
2019-02-27T03:21:06.132Z,3.00
2019-02-27T03:24:15.086Z,2.67
2019-02-27T03:27:32.458Z,2.10
2019-02-27T03:30:45.435Z,3.57
2019-02-27T03:33:50.923Z,3.87
2019-02-27T03:37:13.113Z,2.73
2019-02-27T03:39:55.026Z,3.53
2019-02-27T03:43:11.350Z,2.10
2019-02-27T03:46:32.676Z,2.57
2019-02-27T03:49:40.834Z,2.27
2019-02-27T03:52:40.241Z,2.60
2019-02-27T03:55:51.788Z,3.50
2019-02-27T03:59:06.344Z,2.57
2019-02-27T04:01:48.071Z,4.70
2019-02-27T04:04:29.560Z,4.00
2019-02-27T04:07:32.624Z,4.40
2019-02-27T04:10:01.102Z,2.23
2019-02-27T04:12:30.331Z,10.23
2019-02-27T04:14:58.461Z,3.63
2019-02-27T04:17:28.977Z,4.00
2019-02-27T04:19:57.202Z,3.77
2019-02-27T04:22:27.259Z,3.13
2019-02-27T04:24:57.674Z,2.60
2019-02-27T04:27:27.288Z,2.80
2019-02-27T04:29:56.595Z,4.27
2019-02-27T04:32:24.787Z,3.90
2019-02-27T04:34:52.934Z,4.73
2019-02-27T04:37:21.203Z,3.63
2019-02-27T04:39:50.491Z,3.43
2019-02-27T04:42:22.957Z,4.13
2019-02-27T04:44:51.433Z,4.80
2019-02-27T04:47:21.454Z,5.50
2019-02-27T04:49:50.550Z,4.93
2019-02-27T04:52:18.786Z,2.57
2019-02-27T04:54:46.816Z,3.07
2019-02-27T04:57:14.999Z,4.10
2019-02-27T04:59:44.353Z,3.47
2019-02-27T05:02:14.654Z,2.83
2019-02-27T05:04:42.528Z,3.23
2019-02-27T05:07:10.574Z,4.50
2019-02-27T05:09:39.745Z,3.63
2019-02-27T05:12:10.443Z,5.80
2019-02-27T05:14:38.591Z,2.90
2019-02-27T05:17:06.847Z,3.13
2019-02-27T05:19:37.241Z,4.97
2019-02-27T05:22:05.758Z,5.50
2019-02-27T05:24:34.196Z,4.50
2019-02-27T05:27:03.596Z,3.63
2019-02-27T05:29:31.839Z,3.67
2019-02-27T05:32:00.007Z,3.40
2019-02-27T05:34:27.942Z,5.20
2019-02-27T05:36:55.967Z,4.67
2019-02-27T05:39:24.122Z,5.50
2019-02-27T05:41:52.083Z,4.77
2019-02-27T05:44:22.115Z,6.70
2019-02-27T05:46:50.107Z,6.37
2019-02-27T05:49:18.122Z,6.07
2019-02-27T05:51:46.193Z,5.07
2019-02-27T05:54:14.277Z,4.83
2019-02-27T05:56:42.348Z,7.13
2019-02-27T05:59:10.419Z,4.97
2019-02-27T06:01:38.771Z,7.53
2019-02-27T06:04:07.212Z,6.87
2019-02-27T06:06:35.183Z,8.53
2019-02-27T06:09:10.054Z,6.17
2019-02-27T06:11:35.488Z,5.93
2019-02-27T06:14:03.552Z,7.17
2019-02-27T06:16:31.526Z,6.40
2019-02-27T06:18:59.596Z,6.33
2019-02-27T06:21:27.665Z,7.13
2019-02-27T06:23:55.535Z,11.43
2019-02-27T06:26:23.495Z,6.83
2019-02-27T06:28:51.563Z,7.60
2019-02-27T06:31:19.619Z,7.20
2019-02-27T06:33:47.711Z,6.53
2019-02-27T06:36:15.810Z,9.47
2019-02-27T06:38:43.859Z,6.30
2019-02-27T06:41:15.389Z,7.57
2019-02-27T06:43:41.867Z,8.77
2019-02-27T06:46:09.872Z,9.73
2019-02-27T06:48:37.951Z,9.03
2019-02-27T06:51:06.032Z,10.90
2019-02-27T06:53:33.896Z,8.07
2019-02-27T06:56:03.473Z,8.40
2019-02-27T06:58:31.756Z,8.77
2019-02-27T07:00:59.545Z,13.60
2019-02-27T07:03:29.443Z,10.50
2019-02-27T07:05:57.519Z,7.10
2019-02-27T07:08:25.608Z,11.77
2019-02-27T07:10:57.318Z,7.57
2019-02-27T07:13:23.512Z,8.63
2019-02-27T07:15:51.583Z,11.00
2019-02-27T07:18:19.679Z,10.97
2019-02-27T07:20:47.545Z,9.27
2019-02-27T07:23:15.516Z,6.90
2019-02-27T07:25:43.587Z,8.43
2019-02-27T07:28:11.763Z,8.70
2019-02-27T07:30:42.607Z,7.90
2019-02-27T07:33:10.975Z,9.07
2019-02-27T07:35:38.950Z,9.70
2019-02-27T07:38:08.108Z,9.13
2019-02-27T07:40:36.284Z,9.10
2019-02-27T07:43:05.722Z,9.43
2019-02-27T07:45:34.344Z,8.60
2019-02-27T07:48:02.423Z,7.67
2019-02-27T07:50:32.459Z,6.90
2019-02-27T07:53:00.391Z,6.63
2019-02-27T07:55:29.582Z,6.93
2019-02-27T07:57:58.684Z,8.43
2019-02-27T08:00:27.399Z,7.60
2019-02-27T08:02:55.375Z,7.47
2019-02-27T08:05:27.945Z,5.30
2019-02-27T08:07:53.150Z,8.67
2019-02-27T08:10:21.233Z,5.47
2019-02-27T08:12:49.193Z,6.70
2019-02-27T08:15:17.179Z,9.30
2019-02-27T08:17:45.382Z,8.47
2019-02-27T08:20:13.448Z,8.40
2019-02-27T08:22:41.520Z,6.70
2019-02-27T08:25:10.227Z,9.60
2019-02-27T08:27:43.118Z,8.30
2019-02-27T08:30:10.470Z,6.13
2019-02-27T08:32:38.780Z,7.50
2019-02-27T08:35:06.764Z,6.43
2019-02-27T08:37:34.820Z,7.83
2019-02-27T08:40:03.060Z,5.23
2019-02-27T08:42:36.840Z,6.00
2019-02-27T08:45:02.136Z,8.53
2019-02-27T08:47:30.216Z,4.87
2019-02-27T08:49:58.646Z,6.80
2019-02-27T08:52:26.696Z,4.87
2019-02-27T08:54:54.655Z,6.53
2019-02-27T08:57:22.837Z,5.90
2019-02-27T09:00:14.179Z,4.93
2019-02-27T09:02:40.132Z,6.80
2019-02-27T09:05:08.291Z,9.17
2019-02-27T09:07:36.474Z,5.47
2019-02-27T09:10:05.768Z,9.33
2019-02-27T09:12:33.748Z,5.47
2019-02-27T09:15:01.718Z,6.43
2019-02-27T09:17:29.820Z,5.70
2019-02-27T09:19:57.810Z,5.33
2019-02-27T09:22:25.880Z,4.93
2019-02-27T09:24:53.956Z,6.97
2019-02-27T09:27:22.024Z,6.23
2019-02-27T09:29:52.345Z,5.10
2019-02-27T09:32:20.485Z,6.43
2019-02-27T09:34:49.852Z,4.83
2019-02-27T09:37:18.051Z,4.60
2019-02-27T09:39:46.116Z,6.33
2019-02-27T09:42:18.727Z,5.40
2019-02-27T09:44:45.235Z,4.67
2019-02-27T09:47:13.404Z,5.70
2019-02-27T09:49:41.613Z,6.13
2019-02-27T09:52:09.936Z,4.37
2019-02-27T09:54:37.967Z,3.93
2019-02-27T09:57:05.931Z,4.90
2019-02-27T09:59:34.012Z,9.17
2019-02-27T10:02:02.517Z,9.20
2019-02-27T10:04:31.584Z,7.60
2019-02-27T10:06:59.484Z,3.87
2019-02-27T10:09:27.551Z,5.20
2019-02-27T10:11:55.663Z,6.07
2019-02-27T10:14:23.771Z,7.40
2019-02-27T10:16:51.971Z,6.23
2019-02-27T10:19:20.148Z,4.60
2019-02-27T10:21:49.419Z,4.33
2019-02-27T10:24:17.496Z,7.13
2019-02-27T10:26:45.568Z,5.07
2019-02-27T10:29:14.245Z,6.80
2019-02-27T10:31:42.356Z,6.40
2019-02-27T10:34:10.387Z,5.27
2019-02-27T10:36:39.347Z,8.07
2019-02-27T10:39:07.442Z,7.57
2019-02-27T10:41:35.529Z,9.40
2019-02-27T10:44:03.635Z,10.83
2019-02-27T10:46:31.590Z,6.77
2019-02-27T10:48:59.823Z,6.13
2019-02-27T10:51:27.808Z,9.30
2019-02-27T10:53:56.014Z,7.10
2019-02-27T10:56:24.306Z,11.67
2019-02-27T10:58:53.041Z,7.57
2019-02-27T11:01:21.356Z,8.33
2019-02-27T11:03:49.315Z,11.73
2019-02-27T11:06:17.350Z,10.50
2019-02-27T11:08:45.544Z,8.40
2019-02-27T11:11:16.411Z,7.40
2019-02-27T11:13:43.476Z,8.43
2019-02-27T11:16:11.272Z,10.20
2019-02-27T11:18:39.354Z,11.00
2019-02-27T11:21:08.532Z,9.33
2019-02-27T11:23:40.833Z,6.00
2019-02-27T11:26:06.304Z,8.47
2019-02-27T11:28:34.073Z,7.00
2019-02-27T11:31:03.357Z,6.80
2019-02-27T11:33:33.423Z,9.43
2019-02-27T11:36:03.195Z,10.10
2019-02-27T11:38:32.494Z,8.10
2019-02-27T11:41:00.563Z,6.67
2019-02-27T11:43:28.622Z,6.47
2019-02-27T11:45:58.020Z,7.53
2019-02-27T11:48:26.656Z,7.50
2019-02-27T11:50:54.632Z,8.07
2019-02-27T11:53:22.814Z,7.60
2019-02-27T11:55:50.739Z,8.77
2019-02-27T11:58:18.919Z,9.47
2019-02-27T12:00:46.984Z,7.20
2019-02-27T12:03:15.028Z,7.50
2019-02-27T12:05:42.795Z,9.47
2019-02-27T12:08:11.449Z,6.33
2019-02-27T12:10:39.839Z,7.90
2019-02-27T12:13:07.617Z,8.57
2019-02-27T12:15:35.667Z,7.17
2019-02-27T12:18:03.760Z,7.77
2019-02-27T12:20:31.898Z,13.33
2019-02-27T12:22:59.647Z,9.67
2019-02-27T12:25:30.032Z,7.70
2019-02-27T12:27:57.587Z,5.00
2019-02-27T12:30:25.890Z,9.17
2019-02-27T12:32:56.697Z,7.13
2019-02-27T12:35:24.817Z,8.00
2019-02-27T12:37:52.703Z,7.80
2019-02-27T12:40:23.869Z,3.93
2019-02-27T12:42:50.569Z,6.87
2019-02-27T12:45:18.914Z,5.90
2019-02-27T12:47:46.922Z,8.70
2019-02-27T12:50:15.719Z,5.83
2019-02-27T12:52:44.791Z,5.17
2019-02-27T12:55:13.900Z,5.13
2019-02-27T12:57:41.756Z,6.37
2019-02-27T13:00:10.915Z,5.97
2019-02-27T13:02:38.829Z,7.60
2019-02-27T13:05:07.941Z,8.43
2019-02-27T13:07:35.835Z,6.73
2019-02-27T13:10:04.627Z,10.03
2019-02-27T13:12:32.588Z,6.87
2019-02-27T13:15:00.788Z,7.77
2019-02-27T13:17:28.749Z,6.80
2019-02-27T13:19:56.813Z,6.63
2019-02-27T13:22:26.320Z,4.70
2019-02-27T13:24:54.856Z,10.00
2019-02-27T13:27:22.924Z,5.60
2019-02-27T13:29:55.462Z,7.77
2019-02-27T13:32:26.413Z,8.33
2019-02-27T13:34:52.090Z,4.47
2019-02-27T13:37:20.160Z,5.67
2019-02-27T13:39:48.136Z,6.53
2019-02-27T13:42:18.395Z,5.77
2019-02-27T13:44:45.929Z,5.63
2019-02-27T13:47:13.975Z,7.30
2019-02-27T13:49:41.934Z,6.10
2019-02-27T13:52:12.314Z,4.80
2019-02-27T13:54:39.999Z,7.43
2019-02-27T13:57:08.124Z,5.10
2019-02-27T13:59:36.247Z,6.40
2019-02-27T14:02:04.891Z,9.63
2019-02-27T14:04:32.903Z,4.63
2019-02-27T14:07:00.963Z,4.80
2019-02-27T14:09:29.073Z,5.60
2019-02-27T14:11:58.812Z,5.87
2019-02-27T14:14:26.991Z,6.27
2019-02-27T14:16:54.870Z,4.30
2019-02-27T14:19:24.438Z,6.53
2019-02-27T14:21:52.736Z,7.10
2019-02-27T14:24:21.271Z,4.43
2019-02-27T14:26:49.472Z,4.63
2019-02-27T14:29:17.550Z,5.00
2019-02-27T14:31:45.499Z,4.57
2019-02-27T14:34:13.697Z,8.37
2019-02-27T14:36:42.402Z,6.07
2019-02-27T14:39:12.525Z,4.23
2019-02-27T14:41:40.411Z,5.00
2019-02-27T14:44:08.491Z,4.67
2019-02-27T14:46:36.324Z,6.77
2019-02-27T14:49:04.319Z,7.83
2019-02-27T14:51:32.425Z,5.83
2019-02-27T14:54:00.412Z,8.37
2019-02-27T14:56:28.492Z,4.90
2019-02-27T14:58:57.417Z,5.33
2019-02-27T15:01:26.982Z,4.90
2019-02-27T15:03:54.909Z,5.80
2019-02-27T15:06:22.875Z,8.93
2019-02-27T15:08:57.644Z,13.93
2019-02-27T15:11:20.963Z,11.07
2019-02-27T15:13:48.843Z,7.90
2019-02-27T15:16:16.720Z,6.47
2019-02-27T15:18:44.779Z,4.40
2019-02-27T15:21:13.244Z,8.37
2019-02-27T15:23:41.720Z,6.03
2019-02-27T15:26:09.915Z,7.77
2019-02-27T15:28:37.803Z,9.37
2019-02-27T15:31:05.772Z,6.53
2019-02-27T15:33:35.885Z,10.33
2019-02-27T15:36:03.431Z,10.43
2019-02-27T15:38:31.299Z,12.77
2019-02-27T15:41:02.607Z,9.93
2019-02-27T15:43:29.123Z,7.57
2019-02-27T15:45:56.984Z,11.00
2019-02-27T15:48:24.745Z,15.30
2019-02-27T15:50:56.543Z,11.40
2019-02-27T15:53:22.672Z,10.70
2019-02-27T15:55:50.436Z,8.57
2019-02-27T15:58:18.305Z,8.00
2019-02-27T16:00:49.154Z,8.27
2019-02-27T16:03:15.946Z,11.33
2019-02-27T16:05:43.912Z,8.50
2019-02-27T16:08:11.988Z,10.63
2019-02-27T16:10:43.800Z,7.67
2019-02-27T16:13:10.060Z,7.93
2019-02-27T16:15:38.133Z,11.37
2019-02-27T16:18:05.981Z,6.17
2019-02-27T16:20:34.270Z,7.87
2019-02-27T16:23:05.103Z,5.37
2019-02-27T16:25:31.881Z,7.10
2019-02-27T16:27:59.869Z,6.27
2019-02-27T16:30:31.303Z,5.60
2019-02-27T16:32:57.687Z,8.17
2019-02-27T16:35:25.492Z,7.83
2019-02-27T16:37:56.872Z,8.63
2019-02-27T16:40:23.430Z,10.53
2019-02-27T16:42:51.479Z,9.33
2019-02-27T16:45:20.707Z,6.53
2019-02-27T16:47:48.678Z,6.13
2019-02-27T16:50:17.764Z,5.50
2019-02-27T16:52:45.540Z,9.57
2019-02-27T16:55:14.333Z,6.47
2019-02-27T16:57:42.275Z,7.53
2019-02-27T17:00:11.490Z,6.13
2019-02-27T17:02:39.803Z,7.50
2019-02-27T17:05:08.804Z,5.93
2019-02-27T17:07:37.848Z,6.43
2019-02-27T17:10:07.975Z,11.43
2019-02-27T17:12:38.256Z,9.00
2019-02-27T17:15:05.715Z,7.20
2019-02-27T17:17:33.683Z,5.87
2019-02-27T17:20:01.851Z,8.23
2019-02-27T17:22:30.292Z,7.17
2019-02-27T17:24:59.572Z,4.90
2019-02-27T17:27:27.720Z,6.27
2019-02-27T17:29:59.768Z,4.67
2019-02-27T17:32:27.450Z,5.00
2019-02-27T17:34:55.325Z,3.70
2019-02-27T17:37:23.219Z,7.50
2019-02-27T17:39:51.205Z,4.83
2019-02-27T17:42:19.367Z,6.03
2019-02-27T17:44:47.304Z,5.80
2019-02-27T17:47:15.043Z,5.57
2019-02-27T17:49:42.946Z,6.17
2019-02-27T17:52:11.495Z,10.60
2019-02-27T17:54:40.020Z,7.93
2019-02-27T17:57:08.008Z,6.53
2019-02-27T17:59:36.128Z,9.93
2019-02-27T18:02:04.087Z,7.97
2019-02-27T18:04:32.232Z,9.47
2019-02-27T18:07:00.704Z,6.73
2019-02-27T18:09:28.737Z,7.83
2019-02-27T18:11:56.740Z,7.57
2019-02-27T18:14:25.062Z,5.30
2019-02-27T18:16:53.177Z,6.73
2019-02-27T18:19:21.615Z,6.53
2019-02-27T18:21:49.614Z,9.43
2019-02-27T18:24:17.715Z,5.93
2019-02-27T18:26:50.078Z,6.00
2019-02-27T18:29:15.357Z,8.27
2019-02-27T18:31:43.434Z,9.07
2019-02-27T18:34:11.327Z,6.63
2019-02-27T18:36:42.856Z,5.73
2019-02-27T18:39:09.370Z,5.97
2019-02-27T18:41:39.634Z,5.60
2019-02-27T18:44:08.054Z,6.00
2019-02-27T18:46:36.842Z,5.93
2019-02-27T18:49:05.179Z,7.97
2019-02-27T18:51:33.891Z,7.77
2019-02-27T18:54:02.352Z,9.50
2019-02-27T18:56:30.310Z,6.93
2019-02-27T18:58:58.761Z,4.33
2019-02-27T19:01:26.853Z,3.20
2019-02-27T19:04:00.308Z,3.97
2019-02-27T19:06:24.712Z,5.87
2019-02-27T19:08:52.585Z,3.80
2019-02-27T19:11:22.319Z,4.87
2019-02-27T19:13:50.469Z,4.53
2019-02-27T19:16:20.706Z,3.20
2019-02-27T19:18:49.044Z,3.20
2019-02-27T19:21:17.116Z,3.07
2019-02-27T19:23:45.198Z,4.37
2019-02-27T19:26:13.290Z,3.40
2019-02-27T19:28:41.400Z,3.33
2019-02-27T19:31:09.347Z,4.70
2019-02-27T19:33:37.219Z,4.30
2019-02-27T19:36:05.259Z,4.13
2019-02-27T19:38:33.319Z,7.07
2019-02-27T19:41:04.127Z,7.23
2019-02-27T19:43:31.455Z,12.33
2019-02-27T19:45:59.607Z,10.83
2019-02-27T19:48:28.969Z,14.77
2019-02-27T19:50:57.370Z,12.17
2019-02-27T19:53:25.491Z,13.70
2019-02-27T19:55:53.513Z,14.97
2019-02-27T19:58:21.584Z,20.27
2019-02-27T20:00:49.649Z,13.80
2019-02-27T20:03:17.804Z,10.27
2019-02-27T20:05:45.792Z,7.97
2019-02-27T20:08:13.916Z,7.63
2019-02-27T20:10:41.871Z,4.93
2019-02-27T20:13:09.728Z,4.95
2019-02-27T20:15:37.774Z,4.60
2019-02-27T20:18:08.241Z,5.10
2019-02-27T20:20:40.076Z,5.23
2019-02-27T20:23:05.619Z,4.93
2019-02-27T20:25:33.494Z,3.17
2019-02-27T20:28:01.483Z,3.07
2019-02-27T20:30:29.560Z,5.37
2019-02-27T20:32:59.790Z,5.57
2019-02-27T20:35:27.565Z,2.80
2019-02-27T20:37:55.538Z,4.50
2019-02-27T20:40:23.508Z,3.13
2019-02-27T20:42:54.885Z,4.23
2019-02-27T20:45:21.184Z,5.73
2019-02-27T20:47:49.866Z,4.30
2019-02-27T20:50:34.160Z,5.03
2019-02-27T20:52:52.601Z,3.53
2019-02-27T20:55:21.524Z,5.23
2019-02-27T20:57:49.728Z,5.93
2019-02-27T21:00:17.689Z,4.60
2019-02-27T21:02:45.527Z,4.93
2019-02-27T21:05:13.329Z,4.20
2019-02-27T21:07:41.424Z,4.03
2019-02-27T21:10:11.090Z,3.40
2019-02-27T21:12:40.760Z,2.27
2019-02-27T21:15:09.679Z,4.67
2019-02-27T21:17:37.624Z,5.13
2019-02-27T21:20:11.143Z,4.50
2019-02-27T21:22:35.561Z,2.93
2019-02-27T21:25:03.817Z,4.23
2019-02-27T21:27:33.109Z,7.27
2019-02-27T21:30:02.040Z,3.67
2019-02-27T21:32:29.990Z,6.20
2019-02-27T21:34:57.766Z,4.33
2019-02-27T21:37:25.768Z,3.27
2019-02-27T21:39:53.671Z,3.43
2019-02-27T21:42:21.631Z,3.23
2019-02-27T21:44:49.531Z,3.60
2019-02-27T21:47:18.390Z,2.23
2019-02-27T21:49:46.972Z,3.70
2019-02-27T21:52:15.044Z,1.93
2019-02-27T21:54:42.948Z,3.43
2019-02-27T21:57:10.807Z,2.27
2019-02-27T21:59:39.793Z,2.93
2019-02-27T22:02:08.724Z,3.43
2019-02-27T22:04:36.802Z,2.57
2019-02-27T22:07:04.862Z,2.97
2019-02-27T22:09:32.932Z,2.53
2019-02-27T22:12:01.138Z,4.70
2019-02-27T22:14:29.928Z,3.23
2019-02-27T22:16:57.863Z,4.10
2019-02-27T22:19:25.977Z,5.80
2019-02-27T22:21:53.876Z,5.43
2019-02-27T22:24:21.643Z,2.63
2019-02-27T22:26:49.716Z,3.20
2019-02-27T22:29:17.784Z,4.07
2019-02-27T22:31:45.559Z,2.77
2019-02-27T22:34:13.623Z,2.80
2019-02-27T22:36:44.041Z,3.13
2019-02-27T22:39:11.259Z,2.63
2019-02-27T22:41:40.620Z,5.90
2019-02-27T22:44:09.112Z,7.73
2019-02-27T22:46:36.975Z,9.60
2019-02-27T22:49:04.744Z,5.57
2019-02-27T22:51:32.602Z,3.97
2019-02-27T22:54:02.252Z,6.97
2019-02-27T22:56:30.320Z,4.13
2019-02-27T22:58:59.391Z,4.43
2019-02-27T23:01:37.358Z,3.33
2019-02-27T23:04:06.748Z,3.30
2019-02-27T23:06:34.809Z,2.57
2019-02-27T23:09:04.628Z,4.80
2019-02-27T23:11:34.137Z,4.63
2019-02-27T23:14:02.404Z,3.97
2019-02-27T23:16:30.615Z,5.83
2019-02-27T23:18:58.805Z,2.17
2019-02-27T23:21:27.352Z,2.80
2019-02-27T23:23:55.345Z,4.20
2019-02-27T23:26:23.384Z,3.43
2019-02-27T23:28:51.454Z,4.27
2019-02-27T23:31:23.418Z,1.60
2019-02-27T23:33:49.377Z,1.53
2019-02-27T23:36:17.454Z,2.10
2019-02-27T23:38:45.315Z,3.50
2019-02-27T23:41:13.287Z,3.60
2019-02-27T23:43:41.148Z,3.87
2019-02-27T23:46:09.112Z,1.67
2019-02-27T23:48:37.152Z,2.30
2019-02-27T23:51:05.371Z,2.10
2019-02-27T23:53:33.329Z,2.90
2019-02-27T23:56:01.238Z,2.47
2019-02-27T23:58:29.728Z,3.90
